createdAt,value
2023-03-07T05:24:11.732Z,17.65
2023-03-07T05:26:40.813Z,15.48
2023-03-07T05:29:08.358Z,14.90
2023-03-07T05:31:36.591Z,13.52
2023-03-07T05:34:06.168Z,15.13
2023-03-07T05:36:34.188Z,15.88
2023-03-07T05:39:02.140Z,14.05
2023-03-07T05:41:30.183Z,12.63
2023-03-07T05:43:58.408Z,13.27
2023-03-07T05:46:26.882Z,13.68
2023-03-07T05:48:55.405Z,14.95
2023-03-07T05:51:23.375Z,16.15
2023-03-07T05:53:50.950Z,17.50
2023-03-07T05:56:19.162Z,16.50
2023-03-07T05:58:47.140Z,16.58
2023-03-07T06:01:15.296Z,17.65
2023-03-07T06:03:44.930Z,16.63
2023-03-07T06:06:13.139Z,17.05
2023-03-07T06:08:41.316Z,17.17
2023-03-07T06:11:11.060Z,18.67
2023-03-07T06:13:40.121Z,18.25
2023-03-07T06:16:07.894Z,17.77
2023-03-07T06:18:35.780Z,19.98
2023-03-07T06:21:09.036Z,19.60
2023-03-07T06:23:41.418Z,22.95
2023-03-07T06:26:15.586Z,19.88
2023-03-07T06:28:46.208Z,19.13
2023-03-07T06:31:19.114Z,19.55
2023-03-07T06:33:47.878Z,19.75
2023-03-07T06:36:20.272Z,19.92
2023-03-07T06:38:53.337Z,19.48
2023-03-07T06:41:21.496Z,20.35
2023-03-07T06:43:53.370Z,19.53
2023-03-07T06:46:26.761Z,18.35
2023-03-07T06:48:55.679Z,19.65
2023-03-07T06:51:24.594Z,20.05
2023-03-07T06:53:55.225Z,17.67
2023-03-07T06:56:23.695Z,19.88
2023-03-07T06:58:51.224Z,18.33
2023-03-07T07:01:21.265Z,20.15
2023-03-07T07:03:51.342Z,19.25
2023-03-07T07:06:19.848Z,19.97
2023-03-07T07:08:48.947Z,19.50
2023-03-07T07:11:16.945Z,21.15
2023-03-07T07:13:45.933Z,19.98
2023-03-07T07:16:18.180Z,20.25
2023-03-07T07:18:46.467Z,20.15
2023-03-07T07:21:14.260Z,18.27
2023-03-07T07:23:41.864Z,18.88
2023-03-07T07:26:10.303Z,22.48
2023-03-07T07:28:37.885Z,20.33
2023-03-07T07:31:08.076Z,19.25
2023-03-07T07:33:36.240Z,19.40
2023-03-07T07:38:36.517Z,20.17
2023-03-07T07:41:04.985Z,21.30
2023-03-07T07:43:33.393Z,21.42
2023-03-07T07:46:17.506Z,22.55
2023-03-07T07:48:48.154Z,21.48
2023-03-07T07:51:17.256Z,22.13
2023-03-07T07:53:45.206Z,20.75
2023-03-07T07:56:13.531Z,19.38
2023-03-07T07:58:41.209Z,18.92
2023-03-07T08:01:20.549Z,18.08
2023-03-07T08:03:48.747Z,19.05
2023-03-07T08:06:23.068Z,19.27
2023-03-07T08:08:51.866Z,20.25
2023-03-07T08:11:20.769Z,21.60
2023-03-07T08:13:48.328Z,19.17
2023-03-07T08:16:22.741Z,16.63
2023-03-07T08:18:56.611Z,16.10
2023-03-07T08:21:26.292Z,16.23
2023-03-07T08:23:55.211Z,17.92
2023-03-07T08:28:51.157Z,17.88
2023-03-07T08:31:23.945Z,17.73
2023-03-07T08:33:52.678Z,17.90
2023-03-07T08:36:21.106Z,17.08
2023-03-07T08:38:51.744Z,15.23
2023-03-07T08:41:21.789Z,15.23
2023-03-07T08:43:50.094Z,15.68
2023-03-07T08:46:18.190Z,15.88
2023-03-07T08:48:46.529Z,12.73
2023-03-07T08:51:17.358Z,13.18
2023-03-07T08:53:46.319Z,12.98
2023-03-07T08:56:17.941Z,12.35
2023-03-07T08:58:46.019Z,12.48
2023-03-07T09:01:14.070Z,13.38
2023-03-07T09:03:42.722Z,12.23
2023-03-07T09:06:17.970Z,12.85
2023-03-07T09:08:47.302Z,13.23
2023-03-07T09:11:16.441Z,12.75
2023-03-07T09:13:51.817Z,12.00
2023-03-07T09:16:21.780Z,11.30
2023-03-07T09:18:49.666Z,11.18
2023-03-07T09:21:17.550Z,11.30
2023-03-07T09:23:45.357Z,11.82
2023-03-07T09:26:13.393Z,13.23
2023-03-07T09:28:41.682Z,11.55
2023-03-07T09:31:12.214Z,10.43
2023-03-07T09:33:41.173Z,10.20
2023-03-07T09:36:12.110Z,11.23
2023-03-07T09:38:40.598Z,11.98
2023-03-07T09:41:33.456Z,12.18
2023-03-07T09:44:48.345Z,13.57
2023-03-07T09:47:44.487Z,11.88
2023-03-07T09:50:20.175Z,12.15
2023-03-07T09:52:47.922Z,12.65
2023-03-07T09:55:20.817Z,11.48
2023-03-07T09:57:55.371Z,11.00
2023-03-07T10:00:41.333Z,12.40
2023-03-07T10:03:33.914Z,13.45
2023-03-07T10:06:39.681Z,12.98
2023-03-07T10:09:29.326Z,11.43
2023-03-07T10:12:29.058Z,11.48
2023-03-07T10:15:18.365Z,11.23
2023-03-07T10:18:04.900Z,11.50
2023-03-07T10:20:32.684Z,11.23
2023-03-07T10:23:29.564Z,10.73
2023-03-07T10:26:24.222Z,11.02
2023-03-07T10:28:52.729Z,10.75
2023-03-07T10:31:46.065Z,10.85
2023-03-07T10:34:32.580Z,10.40
2023-03-07T10:37:12.671Z,10.32
2023-03-07T10:39:49.669Z,10.57
2023-03-07T10:42:20.429Z,10.63
2023-03-07T10:44:49.079Z,11.48
2023-03-07T10:47:25.502Z,10.90
2023-03-07T10:50:36.620Z,10.80
2023-03-07T10:53:09.591Z,10.13
2023-03-07T10:55:42.617Z,10.80
2023-03-07T10:58:26.026Z,11.95
2023-03-07T11:01:22.106Z,11.30
2023-03-07T11:04:17.718Z,11.18
2023-03-07T11:06:52.378Z,9.85
2023-03-07T11:09:45.942Z,10.10
2023-03-07T11:12:21.048Z,11.20
2023-03-07T11:14:55.592Z,9.75
2023-03-07T11:17:40.558Z,10.60
2023-03-07T11:20:30.506Z,10.52
2023-03-07T11:23:30.873Z,14.13
2023-03-07T11:26:21.745Z,10.80
2023-03-07T11:29:09.652Z,10.65
2023-03-07T11:32:05.380Z,9.30
2023-03-07T11:34:35.546Z,10.88
2023-03-07T11:37:34.418Z,9.85
2023-03-07T11:40:56.518Z,9.15
2023-03-07T11:43:41.501Z,8.82
2023-03-07T11:46:40.151Z,9.65
2023-03-07T11:49:25.118Z,9.25
2023-03-07T11:52:25.646Z,8.88
2023-03-07T11:55:04.568Z,7.72
2023-03-07T11:57:58.649Z,8.73
2023-03-07T12:00:32.431Z,7.90
2023-03-07T12:03:30.424Z,8.25
2023-03-07T12:06:18.967Z,6.65
2023-03-07T12:09:23.609Z,6.93
2023-03-07T12:12:19.838Z,5.88
2023-03-07T12:15:27.038Z,5.93
2023-03-07T12:18:04.299Z,4.50
2023-03-07T12:21:10.153Z,3.00
2023-03-07T12:23:49.032Z,2.42
2023-03-07T12:26:39.938Z,2.42
2023-03-07T12:29:38.667Z,3.05
2023-03-07T12:32:27.117Z,2.67
2023-03-07T12:35:22.637Z,1.35
2023-03-07T12:38:08.070Z,2.15
2023-03-07T12:40:46.816Z,3.60
2023-03-07T12:43:51.465Z,3.37
2023-03-07T12:46:38.979Z,3.40
2023-03-07T12:49:41.006Z,2.17
2023-03-07T12:52:31.979Z,1.45
2023-03-07T12:55:27.059Z,1.15
2023-03-07T12:58:22.371Z,1.80
2023-03-07T13:01:02.920Z,1.98
2023-03-07T13:04:22.062Z,1.40
2023-03-07T13:06:50.604Z,2.33
2023-03-07T13:09:25.064Z,4.05
2023-03-07T13:12:16.259Z,3.00
2023-03-07T13:14:49.162Z,2.38
2023-03-07T13:17:31.706Z,2.03
2023-03-07T13:20:35.974Z,1.23
2023-03-07T13:23:25.948Z,2.13
2023-03-07T13:26:00.546Z,2.15
2023-03-07T13:28:51.306Z,2.72
2023-03-07T13:31:18.934Z,2.67
2023-03-07T13:33:47.988Z,2.50
2023-03-07T13:39:58.066Z,2.90
2023-03-07T13:45:37.423Z,2.55
2023-03-07T13:48:36.099Z,2.72
2023-03-07T13:51:08.349Z,2.90
2023-03-07T13:53:54.847Z,4.47
2023-03-07T13:56:27.234Z,3.83
2023-03-07T13:59:28.342Z,2.20
2023-03-07T14:02:04.597Z,3.22
2023-03-07T14:04:54.365Z,2.78
2023-03-07T14:07:39.786Z,2.70
2023-03-07T14:10:24.292Z,3.35
2023-03-07T14:13:05.224Z,3.58
2023-03-07T14:16:10.941Z,3.90
2023-03-07T14:19:09.090Z,3.65
2023-03-07T14:21:57.394Z,4.17
2023-03-07T14:24:52.631Z,4.10
2023-03-07T14:27:20.450Z,4.40
2023-03-07T14:29:57.249Z,4.22
2023-03-07T14:32:31.381Z,4.68
2023-03-07T14:34:59.852Z,3.90
2023-03-07T14:37:30.793Z,3.83
2023-03-07T14:40:25.871Z,3.55
2023-03-07T14:43:20.072Z,3.70
2023-03-07T14:46:24.344Z,4.95
2023-03-07T14:49:28.135Z,2.75
2023-03-07T14:51:55.589Z,2.53
2023-03-07T14:54:30.918Z,2.90
2023-03-07T14:57:00.313Z,3.10
2023-03-07T14:59:29.354Z,3.15
2023-03-07T15:01:58.274Z,3.97
2023-03-07T15:04:32.534Z,4.43
2023-03-07T15:07:04.686Z,3.90
2023-03-07T15:09:34.271Z,3.45
2023-03-07T15:12:15.711Z,4.05
2023-03-07T15:14:56.770Z,3.30
2023-03-07T15:17:31.056Z,3.80
2023-03-07T15:20:23.426Z,3.97
2023-03-07T15:22:53.117Z,3.47
2023-03-07T15:25:25.976Z,4.75
2023-03-07T15:28:06.976Z,3.78
2023-03-07T15:30:38.055Z,5.10
2023-03-07T15:33:13.440Z,3.50
2023-03-07T15:35:42.624Z,2.90
2023-03-07T15:38:26.250Z,3.97
2023-03-07T15:40:54.028Z,3.38
2023-03-07T15:43:21.616Z,3.33
2023-03-07T15:46:14.241Z,3.30
2023-03-07T15:48:50.812Z,3.05
2023-03-07T15:51:22.844Z,4.20
2023-03-07T15:54:15.792Z,3.83
2023-03-07T15:56:45.461Z,3.80
2023-03-07T16:01:43.662Z,3.13
2023-03-07T16:04:36.155Z,3.70
2023-03-07T16:07:05.162Z,5.47
2023-03-07T16:09:32.576Z,4.75
2023-03-07T16:12:01.193Z,4.30
2023-03-07T16:14:32.747Z,4.97
2023-03-07T16:17:09.574Z,5.80
2023-03-07T16:19:37.092Z,7.32
2023-03-07T16:22:09.358Z,10.05
2023-03-07T16:24:37.029Z,11.80
2023-03-07T16:27:04.820Z,8.43
2023-03-07T16:29:32.334Z,8.05
2023-03-07T16:32:01.391Z,8.32
2023-03-07T16:34:28.923Z,8.43
2023-03-07T16:36:56.820Z,11.23
2023-03-07T16:39:25.205Z,11.18
2023-03-07T16:41:53.016Z,17.13
2023-03-07T16:44:22.334Z,16.40
2023-03-07T16:47:12.561Z,19.20
2023-03-07T16:49:40.382Z,22.60
2023-03-07T16:52:12.308Z,25.58
2023-03-07T16:54:41.021Z,23.05
2023-03-07T16:57:17.196Z,24.88
2023-03-07T16:59:48.020Z,22.50
2023-03-07T17:02:21.575Z,22.48
2023-03-07T17:04:49.163Z,22.15
2023-03-07T17:07:22.978Z,20.63
2023-03-07T17:09:50.816Z,21.33
2023-03-07T17:12:25.731Z,20.70
2023-03-07T17:14:53.692Z,13.05
2023-03-07T17:17:30.703Z,15.43
2023-03-07T17:19:58.121Z,20.08
2023-03-07T17:22:26.056Z,19.58
2023-03-07T17:24:53.562Z,19.90
2023-03-07T17:27:21.986Z,20.30
2023-03-07T17:29:54.593Z,21.80
2023-03-07T17:32:22.668Z,24.60
2023-03-07T17:34:50.139Z,25.83
2023-03-07T17:37:18.146Z,23.58
2023-03-07T17:39:46.057Z,25.10
2023-03-07T17:42:14.716Z,27.20
2023-03-07T17:44:42.669Z,33.15
2023-03-07T17:47:11.572Z,32.83
2023-03-07T17:49:41.023Z,29.85
2023-03-07T17:52:09.787Z,27.63
2023-03-07T17:54:37.442Z,26.08
2023-03-07T17:57:05.328Z,24.85
2023-03-07T17:59:33.127Z,27.80
2023-03-07T18:02:01.106Z,25.70
2023-03-07T18:04:31.266Z,25.50
2023-03-07T18:07:00.240Z,25.15
2023-03-07T18:09:27.783Z,26.23
2023-03-07T18:11:55.544Z,26.60
2023-03-07T18:14:23.610Z,26.67
2023-03-07T18:16:51.552Z,25.77
2023-03-07T18:19:26.391Z,25.58
2023-03-07T18:21:55.807Z,27.13
2023-03-07T18:24:26.945Z,21.45
2023-03-07T18:26:57.554Z,21.73
2023-03-07T18:29:27.150Z,21.42
2023-03-07T18:31:55.014Z,20.35
2023-03-07T18:34:24.825Z,20.95
2023-03-07T18:36:54.427Z,19.15
2023-03-07T18:39:24.083Z,18.58
2023-03-07T18:41:52.098Z,19.75
2023-03-07T18:44:19.803Z,20.08
2023-03-07T18:46:47.701Z,20.40
2023-03-07T18:49:16.328Z,18.00
2023-03-07T18:51:46.079Z,17.77
2023-03-07T18:54:14.236Z,18.58
2023-03-07T18:56:45.082Z,17.05
2023-03-07T18:59:12.662Z,17.40
2023-03-07T19:01:41.144Z,16.05
2023-03-07T19:04:09.225Z,18.88
2023-03-07T19:06:40.730Z,18.65
2023-03-07T19:09:16.476Z,19.70
2023-03-07T19:11:44.898Z,21.65
2023-03-07T19:14:12.798Z,22.60
2023-03-07T19:16:40.919Z,24.30
2023-03-07T19:19:08.433Z,23.08
2023-03-07T19:21:36.296Z,24.42
2023-03-07T19:24:05.777Z,24.77
2023-03-07T19:26:33.714Z,23.63
2023-03-07T19:29:01.319Z,26.45
2023-03-07T19:31:32.052Z,28.05
2023-03-07T19:34:02.031Z,30.38
2023-03-07T19:36:32.164Z,33.83
2023-03-07T19:38:59.792Z,31.13
2023-03-07T19:41:30.172Z,32.17
2023-03-07T19:43:59.961Z,32.55
2023-03-07T19:46:28.252Z,32.05
2023-03-07T19:48:56.096Z,32.63
2023-03-07T19:51:26.514Z,28.25
2023-03-07T19:53:57.291Z,27.83
2023-03-07T19:56:29.370Z,27.17
2023-03-07T19:58:59.273Z,24.15
2023-03-07T20:01:29.325Z,23.40
2023-03-07T20:03:57.258Z,20.77
2023-03-07T20:06:29.918Z,23.67
2023-03-07T20:09:00.318Z,20.25
2023-03-07T20:11:31.838Z,18.55
2023-03-07T20:14:03.527Z,19.17
2023-03-07T20:16:33.761Z,18.98
2023-03-07T20:19:07.594Z,17.15
2023-03-07T20:21:37.263Z,16.73
